Bignell, Nebraska
Current Conditions -  °F | °C
As of 9:53 AM on Wednesday 22 Oct 2014 (Local Time) from KLBF Reporting Station
Broken Clouds Broken Clouds  
Wind Chill: 59°   Ceiling: 10000
Heat Index: 59°   Visibility: 10mi
Dew Point: 50°   Wind: 5mph
Humidity: 72%   Direction: NA
Pressure: 30"   Gusts: NA
Location:  41.0617°N, 100.501°W
Report Text: KLBF 221453Z AUTO VRB04KT 10SM BKN100 15/10 A3000 RMK AO2 SLP145 60000 T01500100 53020
Loading
Personal Weather Stations






























Interactive Weather Map
Tropical Storm Tracking
New forecast layout! Learn more

10-Day Weather Forecast

Advertisements
Track Severe Weather on mobile